Погода Милдьюрана 2 недели

Западная Австралия, Австралия

04 - 17 марта
  • 04марта
    Сегодня
    +12°
    +29°
    Ясно и безоблачно
    ВремяПогодаТемператураВлажностьДавлениеВетер, м/сВероятность осадков
    02:00Ясно и безоблачно+17°C48 %760 мм4.0 м/с5 %
    05:00Ясно и безоблачно+14°C56 %760 мм4.8 м/с5 %
    08:00Ясно и безоблачно+13°C62 %761 мм3.8 м/с5 %
    11:00Ясно и безоблачно+19°C39 %761 мм3.3 м/с5 %
    14:00Ясно и безоблачно+25°C20 %760 мм2.4 м/с5 %
    17:00Ясно и безоблачно+28°C15 %758 мм2.7 м/с5 %
    20:00Ясно и безоблачно+24°C20 %758 мм2.1 м/с5 %
    23:00Ясно и безоблачно+18°C28 %758 мм2.6 м/с5 %
  • 05марта
    Вторник
    +15°
    +33°
    Ясно и безоблачно
    ВремяПогодаТемператураВлажностьДавлениеВетер, м/сВероятность осадков
    02:00Ясно и безоблачно+16°C40 %757 мм2.3 м/с5 %
    05:00Ясно и безоблачно+14°C46 %757 мм2.2 м/с5 %
    08:00Ясно и безоблачно+14°C50 %758 мм1.8 м/с5 %
    11:00Ясно и безоблачно+26°C18 %758 мм1.7 м/с5 %
    14:00Ясно и безоблачно+31°C11 %757 мм1.0 м/с5 %
    17:00Ясно и безоблачно+33°C8 %755 мм0.1 м/с5 %
    20:00Ясно и безоблачно+27°C16 %755 мм0.8 м/с5 %
    23:00Ясно и безоблачно+22°C14 %756 мм1.1 м/с5 %
  • 06марта
    Среда
    +19°
    +34°
    Облачно с прояснениями
    ВремяПогодаТемператураВлажностьДавлениеВетер, м/сВероятность осадков
    02:00Ясно и безоблачно+18°C22 %755 мм2.4 м/с5 %
    05:00Облачно с прояснениями+16°C28 %755 мм2.5 м/с5 %
    08:00Облачно с прояснениями+17°C33 %756 мм1.7 м/с5 %
    11:00Облачно с прояснениями+29°C11 %757 мм0.9 м/с5 %
    14:00Облачно с прояснениями+33°C8 %756 мм2.3 м/с3 %
    17:00Облачно с прояснениями+34°C10 %755 мм3.0 м/с5 %
    20:00Облачно с прояснениями+29°C16 %756 мм2.6 м/с7 %
    23:00Облачно с прояснениями+24°C21 %757 мм2.4 м/с5 %
  • 07марта
    Четверг
    +19°
    +36°
    Ясно и безоблачно
    ВремяПогодаТемператураВлажностьДавлениеВетер, м/сВероятность осадков
    02:00Облачно с прояснениями+22°C28 %757 мм2.5 м/с4 %
    05:00Облачно с прояснениями+20°C38 %757 мм2.7 м/с4 %
    08:00Облачно с прояснениями+20°C40 %759 мм3.5 м/с5 %
    11:00Ясно и безоблачно+28°C25 %760 мм3.1 м/с5 %
    14:00Ясно и безоблачно+34°C18 %758 мм1.6 м/с5 %
    17:00Ясно и безоблачно+36°C18 %756 мм3.0 м/с5 %
    20:00Ясно и безоблачно+31°C22 %757 мм2.9 м/с3 %
    23:00Облачно с прояснениями+26°C31 %758 мм3.3 м/с4 %
  • 08марта
    Пятница
    +22°
    +38°
    Ясно и безоблачно
    ВремяПогодаТемператураВлажностьДавлениеВетер, м/сВероятность осадков
    02:00Ясно и безоблачно+23°C39 %758 мм3.5 м/с4 %
    05:00Ясно и безоблачно+20°C46 %758 мм3.6 м/с5 %
    08:00Ясно и безоблачно+20°C54 %759 мм3.2 м/с3 %
    11:00Ясно и безоблачно+30°C31 %760 мм2.6 м/с5 %
    14:00Ясно и безоблачно+36°C18 %758 мм1.7 м/с7 %
    17:00Ясно и безоблачно+37°C15 %756 мм3.3 м/с7 %
    20:00Ясно и безоблачно+32°C19 %756 мм1.7 м/с5 %
    23:00Ясно и безоблачно+26°C23 %758 мм3.0 м/с5 %
Мы используем cookies
Соглашаюсь